createdAt,value
2019-05-05T00:01:30.067Z,12.86
2019-05-05T00:04:08.482Z,11.43
2019-05-05T00:06:41.475Z,10.32
2019-05-05T00:09:14.743Z,9.61
2019-05-05T00:12:01.569Z,8.99
2019-05-05T00:14:36.829Z,8.55
2019-05-05T00:17:26.147Z,11.26
2019-05-05T00:19:58.994Z,13.65
2019-05-05T00:22:32.066Z,12.30
2019-05-05T00:25:06.106Z,10.97
2019-05-05T00:27:38.788Z,10.03
2019-05-05T00:30:11.643Z,9.34
2019-05-05T00:32:44.347Z,8.76
2019-05-05T00:35:18.210Z,8.25
2019-05-05T00:37:50.993Z,7.88
2019-05-05T00:40:24.785Z,9.56
2019-05-05T00:42:57.789Z,12.68
2019-05-05T00:45:32.006Z,12.62
2019-05-05T00:48:12.564Z,11.18
2019-05-05T00:50:45.344Z,10.11
2019-05-05T00:53:18.130Z,9.33
2019-05-05T00:55:51.113Z,8.72
2019-05-05T00:58:24.779Z,9.82
2019-05-05T01:01:15.008Z,12.87
2019-05-05T01:03:47.790Z,12.51
2019-05-05T01:06:25.584Z,11.06
2019-05-05T01:08:58.775Z,10.03
2019-05-05T01:11:31.561Z,9.27
2019-05-05T01:14:06.390Z,8.64
2019-05-05T01:16:39.479Z,8.10
2019-05-05T01:19:14.902Z,7.63
2019-05-05T01:21:47.702Z,9.41
2019-05-05T01:24:21.103Z,12.52
2019-05-05T01:26:55.150Z,12.22
2019-05-05T01:29:28.913Z,10.79
2019-05-05T01:32:05.055Z,9.66
2019-05-05T01:34:45.742Z,8.84
2019-05-05T01:37:22.824Z,8.19
2019-05-05T01:39:55.499Z,7.64
2019-05-05T01:42:28.285Z,7.22
2019-05-05T01:45:04.546Z,9.09
2019-05-05T01:47:37.436Z,12.26
2019-05-05T01:50:18.412Z,12.07
2019-05-05T01:52:45.149Z,10.56
2019-05-05T01:55:18.339Z,9.44
2019-05-05T01:57:54.224Z,8.57
2019-05-05T02:00:26.967Z,7.92
2019-05-05T02:03:00.472Z,7.36
2019-05-05T02:05:34.832Z,6.89
2019-05-05T02:08:07.978Z,8.34
2019-05-05T02:10:40.887Z,11.46
2019-05-05T02:13:16.050Z,11.39
2019-05-05T02:15:48.680Z,9.93
2019-05-05T02:18:21.459Z,8.80
2019-05-05T02:21:09.090Z,8.01
2019-05-05T02:23:42.184Z,7.33
2019-05-05T02:26:15.403Z,6.80
2019-05-05T02:29:04.905Z,6.48
2019-05-05T02:31:56.566Z,9.52
2019-05-05T02:34:31.008Z,11.99
2019-05-05T02:37:05.415Z,10.64
2019-05-05T02:39:45.064Z,9.27
2019-05-05T02:42:14.619Z,8.26
2019-05-05T02:44:49.585Z,7.53
2019-05-05T02:47:45.715Z,6.96
2019-05-05T02:50:19.539Z,6.41
2019-05-05T02:52:53.587Z,8.65
2019-05-05T02:55:27.033Z,11.70
2019-05-05T02:58:00.634Z,11.39
2019-05-05T03:00:50.918Z,9.79
2019-05-05T03:03:24.211Z,8.57
2019-05-05T03:05:57.508Z,7.77
2019-05-05T03:08:33.507Z,7.15
2019-05-05T03:11:07.579Z,6.57
2019-05-05T03:13:44.239Z,6.13
2019-05-05T03:16:23.874Z,5.75
2019-05-05T03:18:57.703Z,8.39
2019-05-05T03:21:30.685Z,11.21
2019-05-05T03:24:05.105Z,10.45
2019-05-05T03:26:38.500Z,8.96
2019-05-05T03:29:13.831Z,7.87
2019-05-05T03:31:47.142Z,7.10
2019-05-05T03:34:23.813Z,6.48
2019-05-05T03:36:56.795Z,5.95
2019-05-05T03:39:34.021Z,5.72
2019-05-05T03:42:13.848Z,8.64
2019-05-05T03:44:48.857Z,11.26
2019-05-05T03:47:24.710Z,10.04
2019-05-05T03:49:58.519Z,8.62
2019-05-05T03:52:34.627Z,7.66
2019-05-05T03:55:09.319Z,6.94
2019-05-05T03:57:44.469Z,6.34
2019-05-05T04:00:25.000Z,5.88
2019-05-05T04:02:59.625Z,8.39
2019-05-05T04:05:34.167Z,11.25
2019-05-05T04:08:08.060Z,10.27
2019-05-05T04:10:43.940Z,8.89
2019-05-05T04:13:18.124Z,7.90
2019-05-05T04:16:08.826Z,7.18
2019-05-05T04:18:43.649Z,6.57
2019-05-05T04:21:29.909Z,6.09
2019-05-05T04:23:53.382Z,7.77
2019-05-05T04:26:25.697Z,10.95
2019-05-05T04:28:58.680Z,10.67
2019-05-05T04:31:31.453Z,9.21
2019-05-05T04:34:04.307Z,8.15
2019-05-05T04:36:37.117Z,7.36
2019-05-05T04:39:09.902Z,6.79
2019-05-05T04:41:44.055Z,7.21
2019-05-05T04:44:18.033Z,10.32
2019-05-05T04:46:54.604Z,10.38
2019-05-05T04:49:27.172Z,8.99
2019-05-05T04:52:16.953Z,7.99
2019-05-05T04:54:55.471Z,7.15
2019-05-05T04:57:27.533Z,6.65
2019-05-05T05:00:01.855Z,8.17
2019-05-05T05:02:53.893Z,11.27
2019-05-05T05:05:29.633Z,10.87
2019-05-05T05:08:03.715Z,9.45
2019-05-05T05:10:37.860Z,8.51
2019-05-05T05:13:10.537Z,7.81
2019-05-05T05:15:44.654Z,7.32
2019-05-05T05:18:18.209Z,9.74
2019-05-05T05:20:51.034Z,11.53
2019-05-05T05:23:24.674Z,10.32
2019-05-05T05:25:57.930Z,9.28
2019-05-05T05:28:30.709Z,8.62
2019-05-05T05:31:03.911Z,8.08
2019-05-05T05:33:37.091Z,8.27
2019-05-05T05:36:10.898Z,11.29
2019-05-05T05:38:45.212Z,11.43
2019-05-05T05:41:19.633Z,10.29
2019-05-05T05:43:54.216Z,9.39
2019-05-05T05:46:28.675Z,8.72
2019-05-05T05:49:01.046Z,8.27
2019-05-05T05:51:34.254Z,9.85
2019-05-05T05:54:07.023Z,11.91
2019-05-05T05:56:40.109Z,10.88
2019-05-05T05:59:14.107Z,9.97
2019-05-05T06:01:47.005Z,9.30
2019-05-05T06:04:19.786Z,8.88
2019-05-05T06:06:54.378Z,10.43
2019-05-05T06:09:27.097Z,12.57
2019-05-05T06:11:59.880Z,11.57
2019-05-05T06:14:34.072Z,10.62
2019-05-05T06:17:07.031Z,9.97
2019-05-05T06:19:39.653Z,9.53
2019-05-05T06:22:15.160Z,9.17
2019-05-05T06:24:46.602Z,10.69
2019-05-05T06:27:19.352Z,12.50
2019-05-05T06:29:54.150Z,11.58
2019-05-05T06:32:26.426Z,10.81
2019-05-05T06:34:59.042Z,10.27
2019-05-05T06:37:31.617Z,9.93
2019-05-05T06:40:06.814Z,9.67
2019-05-05T06:42:57.108Z,12.09
2019-05-05T06:45:34.287Z,13.28
2019-05-05T06:48:07.975Z,12.37
2019-05-05T06:50:41.275Z,11.64
2019-05-05T06:53:13.957Z,11.22
2019-05-05T06:55:46.636Z,10.87
2019-05-05T06:58:19.313Z,10.60
2019-05-05T07:00:54.155Z,10.31
2019-05-05T07:03:26.268Z,10.08
2019-05-05T07:05:59.001Z,9.92
2019-05-05T07:08:34.758Z,10.56
2019-05-05T07:11:09.505Z,13.38
2019-05-05T07:13:44.312Z,12.84
2019-05-05T07:16:17.193Z,12.20
2019-05-05T07:18:49.861Z,11.72
2019-05-05T07:21:24.546Z,11.38
2019-05-05T07:23:57.817Z,11.15
2019-05-05T07:26:30.571Z,11.06
2019-05-05T07:29:04.531Z,10.97
2019-05-05T07:31:39.073Z,10.84
2019-05-05T07:34:13.672Z,10.76
2019-05-05T07:36:48.046Z,10.60
2019-05-05T07:39:20.724Z,10.47
2019-05-05T07:41:54.321Z,10.42
2019-05-05T07:44:29.767Z,10.49
2019-05-05T07:47:03.526Z,10.52
2019-05-05T07:49:35.740Z,10.47
2019-05-05T07:52:08.436Z,10.43
2019-05-05T07:54:41.034Z,10.45
2019-05-05T07:57:14.651Z,10.43
2019-05-05T07:59:47.486Z,10.46
2019-05-05T08:02:23.513Z,10.50
2019-05-05T08:04:57.435Z,10.63
2019-05-05T08:07:31.560Z,10.66
2019-05-05T08:10:05.563Z,10.77
2019-05-05T08:12:38.847Z,10.80
2019-05-05T08:15:11.747Z,10.81
2019-05-05T08:17:53.928Z,10.86
2019-05-05T08:20:31.327Z,10.90
2019-05-05T08:23:04.639Z,11.01
2019-05-05T08:25:40.885Z,11.11
2019-05-05T08:28:31.396Z,11.18
2019-05-05T08:31:08.261Z,11.25
2019-05-05T08:33:40.951Z,11.35
2019-05-05T08:36:14.807Z,11.46
2019-05-05T08:38:47.544Z,11.58
2019-05-05T08:41:20.204Z,11.77
2019-05-05T08:43:54.304Z,11.95
2019-05-05T08:46:27.108Z,12.05
2019-05-05T08:48:59.890Z,12.09
2019-05-05T08:51:33.921Z,12.09
2019-05-05T08:54:07.187Z,12.10
2019-05-05T08:56:39.866Z,12.12
2019-05-05T08:59:14.312Z,12.19
2019-05-05T09:01:47.780Z,12.24
2019-05-05T09:04:20.405Z,12.29
2019-05-05T09:06:54.313Z,12.34
2019-05-05T09:09:27.162Z,12.44
2019-05-05T09:11:59.841Z,12.55
2019-05-05T09:14:34.414Z,12.74
2019-05-05T09:17:06.874Z,12.90
2019-05-05T09:19:40.631Z,13.00
2019-05-05T09:22:14.024Z,13.03
2019-05-05T09:24:57.568Z,12.92
2019-05-05T09:27:34.395Z,12.89
2019-05-05T09:30:09.905Z,12.90
2019-05-05T09:32:43.921Z,12.98
2019-05-05T09:35:16.772Z,13.00
2019-05-05T09:37:49.771Z,13.02
2019-05-05T09:40:26.845Z,13.07
2019-05-05T09:42:59.533Z,13.17
2019-05-05T09:45:33.659Z,13.27
2019-05-05T09:48:06.781Z,13.38
2019-05-05T09:50:39.402Z,13.41
2019-05-05T09:53:14.530Z,13.42
2019-05-05T09:55:47.425Z,13.49
2019-05-05T09:58:20.111Z,13.46
2019-05-05T10:00:54.589Z,13.43
2019-05-05T10:03:27.755Z,13.38
2019-05-05T10:06:00.394Z,13.37
2019-05-05T10:08:34.094Z,13.41
2019-05-05T10:11:06.889Z,13.49
2019-05-05T10:13:39.505Z,13.58
2019-05-05T10:16:13.850Z,13.62
2019-05-05T10:18:46.449Z,13.65
2019-05-05T10:21:19.130Z,13.68
2019-05-05T10:23:54.040Z,13.72
2019-05-05T10:26:27.045Z,13.79
2019-05-05T10:29:01.244Z,13.89
2019-05-05T10:31:34.661Z,13.96
2019-05-05T10:34:09.181Z,14.02
2019-05-05T10:36:41.864Z,14.04
2019-05-05T10:39:33.467Z,14.02
2019-05-05T10:42:06.466Z,14.05
2019-05-05T10:44:39.764Z,14.14
2019-05-05T10:47:13.747Z,14.19
2019-05-05T10:49:46.668Z,14.22
2019-05-05T10:52:19.348Z,14.32
2019-05-05T10:54:54.817Z,14.37
2019-05-05T10:57:28.530Z,14.42
2019-05-05T11:00:10.123Z,14.52
2019-05-05T11:02:35.581Z,14.59
2019-05-05T11:05:11.130Z,14.69
2019-05-05T11:07:44.217Z,14.71
2019-05-05T11:10:21.411Z,14.73
2019-05-05T11:12:54.082Z,14.67
2019-05-05T11:15:26.766Z,14.66
2019-05-05T11:17:59.543Z,14.59
2019-05-05T11:20:34.009Z,14.56
2019-05-05T11:23:06.854Z,14.56
2019-05-05T11:25:39.469Z,14.62
2019-05-05T11:28:12.318Z,14.71
2019-05-05T11:30:48.275Z,14.73
2019-05-05T11:33:25.456Z,14.78
2019-05-05T11:36:15.441Z,14.77
2019-05-05T11:38:48.314Z,14.80
2019-05-05T11:41:21.604Z,14.83
2019-05-05T11:43:55.008Z,14.90
2019-05-05T11:46:28.298Z,15.04
2019-05-05T11:49:00.978Z,15.15
2019-05-05T11:51:34.336Z,15.22
2019-05-05T11:54:07.062Z,15.29
2019-05-05T11:56:39.756Z,15.33
2019-05-05T11:59:14.334Z,15.32
2019-05-05T12:01:47.659Z,15.37
2019-05-05T12:04:20.636Z,15.44
2019-05-05T12:06:54.559Z,15.58
2019-05-05T12:09:30.100Z,15.63
2019-05-05T12:12:03.792Z,15.67
2019-05-05T12:14:36.689Z,15.71
2019-05-05T12:17:09.369Z,15.82
2019-05-05T12:19:43.492Z,16.13
2019-05-05T12:22:16.573Z,16.37
2019-05-05T12:24:50.481Z,16.52
2019-05-05T12:27:24.720Z,16.54
2019-05-05T12:29:57.668Z,16.44
2019-05-05T12:32:31.395Z,16.29
2019-05-05T12:35:04.300Z,16.11
2019-05-05T12:37:38.374Z,16.08
2019-05-05T12:40:11.145Z,16.34
2019-05-05T12:42:44.448Z,16.82
2019-05-05T12:45:20.184Z,17.31
2019-05-05T12:48:10.700Z,17.83
2019-05-05T12:50:44.259Z,18.32
2019-05-05T12:53:17.185Z,18.67
2019-05-05T12:55:51.078Z,18.90
2019-05-05T12:58:23.774Z,18.91
2019-05-05T13:01:14.435Z,18.74
2019-05-05T13:03:47.250Z,18.46
2019-05-05T13:06:19.921Z,18.14
2019-05-05T13:08:52.722Z,17.90
2019-05-05T13:11:25.493Z,17.72
2019-05-05T13:13:58.179Z,17.84
2019-05-05T13:16:31.824Z,18.26
2019-05-05T13:19:06.038Z,18.78
2019-05-05T13:21:44.271Z,19.27
2019-05-05T13:24:16.763Z,19.69
2019-05-05T13:27:10.699Z,20.08
2019-05-05T13:29:44.266Z,20.34
2019-05-05T13:32:16.774Z,20.37
2019-05-05T13:34:49.409Z,20.27
2019-05-05T13:37:24.454Z,20.47
2019-05-05T13:39:57.122Z,20.85
2019-05-05T13:42:30.503Z,21.14
2019-05-05T13:45:03.935Z,21.07
2019-05-05T13:47:36.713Z,20.78
2019-05-05T13:50:14.134Z,20.41
2019-05-05T13:52:46.760Z,20.08
2019-05-05T13:55:19.839Z,19.82
2019-05-05T13:57:52.518Z,19.58
2019-05-05T14:00:25.671Z,19.43
2019-05-05T14:02:58.593Z,19.19
2019-05-05T14:05:31.290Z,18.92
2019-05-05T14:08:04.255Z,18.71
2019-05-05T14:10:37.861Z,18.50
2019-05-05T14:13:10.754Z,18.41
2019-05-05T14:15:44.112Z,18.74
2019-05-05T14:18:18.662Z,19.33
2019-05-05T14:20:51.348Z,19.86
2019-05-05T14:23:24.636Z,20.17
2019-05-05T14:25:57.322Z,20.17
2019-05-05T14:28:29.999Z,19.96
2019-05-05T14:31:16.294Z,19.64
2019-05-05T14:33:50.623Z,19.35
2019-05-05T14:36:25.859Z,19.06
2019-05-05T14:38:59.404Z,18.68
2019-05-05T14:41:32.178Z,18.29
2019-05-05T14:44:04.908Z,17.93
2019-05-05T14:46:37.700Z,17.55
2019-05-05T14:49:10.995Z,17.25
2019-05-05T14:51:44.679Z,16.95
2019-05-05T14:54:17.988Z,16.64
2019-05-05T14:56:51.469Z,16.36
2019-05-05T14:59:24.771Z,16.09
2019-05-05T15:01:58.058Z,15.85
2019-05-05T15:04:34.482Z,15.61
2019-05-05T15:07:09.057Z,15.39
2019-05-05T15:09:44.083Z,15.22
2019-05-05T15:12:30.492Z,15.02
2019-05-05T15:15:03.958Z,14.84
2019-05-05T15:17:38.730Z,14.73
2019-05-05T15:20:13.959Z,14.53
2019-05-05T15:22:46.943Z,14.39
2019-05-05T15:25:20.901Z,14.21
2019-05-05T15:27:54.214Z,14.05
2019-05-05T15:30:27.331Z,14.12
2019-05-05T15:33:00.233Z,14.05
2019-05-05T15:35:33.962Z,13.94
2019-05-05T15:38:06.973Z,13.84
2019-05-05T15:40:39.653Z,13.68
2019-05-05T15:43:14.169Z,13.63
2019-05-05T15:45:48.960Z,13.77
2019-05-05T15:48:21.923Z,13.82
2019-05-05T15:50:54.709Z,13.76
2019-05-05T15:53:27.387Z,13.70
2019-05-05T15:56:00.839Z,13.59
2019-05-05T15:58:34.209Z,13.46
2019-05-05T16:01:07.324Z,13.34
2019-05-05T16:03:40.048Z,13.23
2019-05-05T16:06:14.272Z,13.09
2019-05-05T16:08:47.157Z,12.93
2019-05-05T16:11:20.807Z,12.82
2019-05-05T16:13:54.474Z,12.74
2019-05-05T16:16:36.734Z,12.61
2019-05-05T16:19:28.093Z,12.51
2019-05-05T16:22:03.904Z,12.40
2019-05-05T16:24:38.563Z,12.36
2019-05-05T16:27:21.723Z,12.45
2019-05-05T16:29:50.570Z,12.92
2019-05-05T16:32:24.852Z,13.79
2019-05-05T16:34:59.447Z,14.76
2019-05-05T16:37:34.598Z,15.60
2019-05-05T16:40:10.610Z,16.31
2019-05-05T16:42:43.992Z,16.88
2019-05-05T16:45:18.984Z,17.37
2019-05-05T16:47:51.723Z,17.74
2019-05-05T16:50:25.522Z,18.01
2019-05-05T16:53:03.961Z,18.33
2019-05-05T16:55:38.365Z,18.71
2019-05-05T16:58:13.778Z,19.13
2019-05-05T17:00:47.509Z,19.49
2019-05-05T17:03:20.173Z,19.86
2019-05-05T17:05:54.568Z,20.15
2019-05-05T17:08:27.877Z,20.37
2019-05-05T17:11:03.659Z,20.52
2019-05-05T17:13:40.717Z,20.55
2019-05-05T17:16:14.686Z,20.41
2019-05-05T17:18:49.777Z,20.13
2019-05-05T17:21:22.760Z,19.74
2019-05-05T17:23:55.486Z,19.23
2019-05-05T17:26:28.118Z,18.67
2019-05-05T17:29:01.197Z,18.11
2019-05-05T17:31:34.023Z,17.59
2019-05-05T17:34:18.923Z,17.11
2019-05-05T17:36:56.363Z,16.62
2019-05-05T17:39:30.663Z,16.22
2019-05-05T17:42:05.586Z,15.81
2019-05-05T17:44:55.680Z,15.44
2019-05-05T17:47:39.624Z,15.09
2019-05-05T17:50:18.655Z,14.73
2019-05-05T17:53:11.302Z,14.40
2019-05-05T17:55:44.438Z,14.05
2019-05-05T17:58:17.268Z,13.77
2019-05-05T18:00:51.588Z,13.46
2019-05-05T18:03:24.868Z,13.18
2019-05-05T18:06:09.348Z,12.90
2019-05-05T18:08:46.260Z,12.61
2019-05-05T18:11:18.632Z,12.39
2019-05-05T18:13:59.860Z,12.13
2019-05-05T18:16:33.907Z,11.86
2019-05-05T18:19:06.905Z,11.65
2019-05-05T18:21:40.780Z,11.40
2019-05-05T18:24:13.786Z,11.18
2019-05-05T18:26:46.685Z,10.95
2019-05-05T18:29:20.022Z,10.73
2019-05-05T18:31:53.668Z,10.53
2019-05-05T18:34:27.434Z,10.33
2019-05-05T18:37:00.123Z,10.14
2019-05-05T18:39:34.315Z,9.89
2019-05-05T18:42:20.737Z,9.72
2019-05-05T18:44:55.662Z,9.49
2019-05-05T18:47:28.382Z,9.33
2019-05-05T18:50:00.974Z,9.13
2019-05-05T18:52:34.739Z,8.95
2019-05-05T18:55:09.046Z,8.79
2019-05-05T18:57:43.505Z,8.64
2019-05-05T19:00:18.803Z,8.45
2019-05-05T19:02:54.872Z,8.32
2019-05-05T19:05:47.406Z,8.17
2019-05-05T19:08:21.627Z,8.05
2019-05-05T19:10:54.920Z,7.91
2019-05-05T19:13:27.586Z,7.80
2019-05-05T19:16:00.880Z,7.71
2019-05-05T19:18:34.074Z,7.61
2019-05-05T19:21:11.178Z,7.53
2019-05-05T19:23:44.718Z,7.42
2019-05-05T19:26:17.766Z,7.33
2019-05-05T19:28:50.532Z,7.25
2019-05-05T19:31:23.214Z,7.16
2019-05-05T19:33:56.065Z,7.07
2019-05-05T19:36:29.384Z,6.97
2019-05-05T19:39:04.143Z,6.89
2019-05-05T19:41:37.920Z,6.83
2019-05-05T19:44:10.703Z,6.73
2019-05-05T19:46:47.675Z,6.65
2019-05-05T19:49:24.170Z,6.59
2019-05-05T19:51:57.234Z,6.52
2019-05-05T19:54:29.909Z,6.48
2019-05-05T19:57:03.839Z,6.35
2019-05-05T19:59:37.365Z,6.32
2019-05-05T20:02:09.999Z,6.28
2019-05-05T20:04:44.593Z,6.20
2019-05-05T20:07:17.512Z,6.17
2019-05-05T20:09:50.902Z,6.14
2019-05-05T20:12:25.886Z,6.09
2019-05-05T20:15:03.935Z,6.03
2019-05-05T20:17:38.299Z,6.00
2019-05-05T20:20:13.832Z,5.97
2019-05-05T20:22:46.694Z,5.89
2019-05-05T20:25:24.406Z,5.85
2019-05-05T20:28:03.725Z,5.79
2019-05-05T20:30:40.323Z,5.72
2019-05-05T20:33:18.088Z,5.71
2019-05-05T20:35:53.854Z,5.64
2019-05-05T20:38:28.978Z,5.60
2019-05-05T20:41:14.235Z,5.57
2019-05-05T20:43:48.272Z,5.51
2019-05-05T20:46:23.739Z,5.50
2019-05-05T20:48:58.277Z,5.48
2019-05-05T20:51:38.631Z,5.45
2019-05-05T20:54:11.380Z,5.41
2019-05-05T20:56:44.533Z,5.43
2019-05-05T20:59:28.141Z,5.40
2019-05-05T21:01:55.548Z,5.40
2019-05-05T21:04:28.223Z,5.34
2019-05-05T21:07:00.905Z,5.33
2019-05-05T21:09:34.651Z,5.28
2019-05-05T21:12:07.592Z,5.26
2019-05-05T21:14:40.890Z,5.27
2019-05-05T21:17:13.794Z,5.26
2019-05-05T21:19:46.561Z,5.31
2019-05-05T21:22:29.801Z,5.26
2019-05-05T21:25:02.474Z,5.33
2019-05-05T21:27:35.241Z,5.26
2019-05-05T21:30:08.842Z,5.33
2019-05-05T21:32:43.386Z,5.24
2019-05-05T21:35:16.050Z,5.31
2019-05-05T21:37:48.860Z,5.34
2019-05-05T21:40:24.862Z,5.30
2019-05-05T21:42:58.174Z,5.40
2019-05-05T21:45:30.857Z,5.34
2019-05-05T21:48:04.251Z,5.33
2019-05-05T21:50:54.140Z,5.36
2019-05-05T21:53:28.601Z,5.30
2019-05-05T21:56:18.741Z,5.43
2019-05-05T21:58:53.574Z,5.24
2019-05-05T22:01:27.577Z,5.40
2019-05-05T22:04:00.780Z,5.26
2019-05-05T22:06:34.056Z,5.48
2019-05-05T22:09:08.690Z,5.37
2019-05-05T22:11:43.464Z,5.34
2019-05-05T22:14:15.745Z,5.48
2019-05-05T22:16:49.506Z,5.24
2019-05-05T22:19:24.021Z,5.45
2019-05-05T22:21:58.447Z,5.34
2019-05-05T22:24:31.126Z,5.38
2019-05-05T22:27:04.701Z,5.45
2019-05-05T22:29:37.714Z,5.24
2019-05-05T22:32:10.388Z,5.55
2019-05-05T22:34:44.402Z,5.34
2019-05-05T22:37:17.284Z,5.44
2019-05-05T22:39:51.093Z,5.45
2019-05-05T22:42:24.627Z,5.23
2019-05-05T22:44:57.775Z,5.64
2019-05-05T22:47:30.458Z,5.41
2019-05-05T22:50:05.182Z,5.28
2019-05-05T22:52:37.885Z,5.54
2019-05-05T22:55:10.853Z,5.31
2019-05-05T22:57:45.191Z,5.61
2019-05-05T23:00:26.571Z,5.50
2019-05-05T23:03:13.668Z,5.26
2019-05-05T23:05:50.380Z,5.58
2019-05-05T23:08:24.296Z,5.40
2019-05-05T23:10:57.131Z,5.23
2019-05-05T23:13:30.005Z,5.37
2019-05-05T23:16:04.540Z,5.27
2019-05-05T23:18:37.521Z,5.43
2019-05-05T23:21:21.817Z,5.36
2019-05-05T23:24:03.703Z,5.27
2019-05-05T23:26:44.283Z,5.28
2019-05-05T23:29:17.020Z,5.23
2019-05-05T23:31:49.631Z,5.26
2019-05-05T23:34:24.125Z,5.34
2019-05-05T23:36:56.628Z,5.30
2019-05-05T23:39:29.513Z,5.33
2019-05-05T23:42:04.045Z,5.36
2019-05-05T23:44:36.570Z,5.24
2019-05-05T23:47:09.239Z,5.43
2019-05-05T23:49:43.937Z,5.33
2019-05-05T23:52:17.215Z,5.37
2019-05-05T23:54:49.850Z,5.43
2019-05-05T23:57:24.132Z,5.26
2019-05-05T23:59:56.780Z,5.31
